速報掲示板 - 地図表示 · インフォ · テレメトリー · 天気 · · ステータス · ビーコン · メッセージ · ブレテン · ブラウズ · 移動 · マイアカウント

このページは最新24時間のAPRS速報とアナウンスを表示しています。

ブレテングループを選択してください:
    all APRS FRA IGI LOCAL LUX MAREA MAREN SYDTD SYDWX WX XXXXX

あなたの位置から半径500以内の局より発信された速報とアナウンス
コールサイン ID メッセージ 経過時間
AOMTN-5 BLN1XXXXX NO 9600? 27m48s
GDHILL-8 BLN1 1->9 ok. 6>5 weak. 14sees 11-13. 13 no digi 2h13m
GDHILL-8 BLN2 1->12 ok. 6>5 weak. 14sees 11-13. 13 no digi. 15 vox w 14. 2h2m
GDHILL-8 BLN3 Time for GP. 1 & 13 send msg to ALL. 1h18m
GDHILL-8 BLN4 #8 sees #1 Hello GP msg! 1h31m
GDHILL-8 BLN5 QRT at 1500. TNX! 31m39s
GDHILL-8 BLN6 QRT at 1500. No 9600 TNX! 28m37s
N2NUO-15 BLN0 WxBot 1.22 US weather forecast via APRS message. 2h54m
N2NUO-15 BLN1 Send a message to N2NUO-15 for a weather forecast at your location. 2h54m
N2NUO-15 BLN2 see https://sites.google.com/site/ki6wjp/wxbot 2h54m
N4AZR BLN0005 ROAN QRT 1505. 73 ALL! 23m12s
N4AZR BLN003 AT GP 2018 1h6m
速報(BLN0-BLN9)
コールサイン ID メッセージ 経過時間
1P9JJ BLN0 9g459ythsah gskjfdgfdsg 3wh e ghwoishg t8743w 6h33m
9Z4RG-6 BLN0 APRS IGate 144.390MHz SGate 145.825MHz 6m47s
CX2SA-AB BLN1 ((((((( CX2SA - Salto Uruguay ))))))) http://www.cx2sa.org 27m21s
CX2SA-AB BLN2 CX2SA-EM APRS Email - Example> your@maildomain Hello World! 27m19s
CX2SA-AB BLN3 Send message to CX2SA-WI like: F callsign to WHO-IS info 27m17s
CX2SA-AB BLN4 ((( CX2SA-S1 ))) iAPRS Network http://www.iaprs.net 27m15s
CX2SA-AB BLN5 DOWNLOAD latest iAPRS servers list at http://cx2sa.org/SERVERS.TXT 27m13s
DB2HTA BLN0 DB2HTA, Herby looking for Olivia mode QSO, db2hta@darc.de 5h21m
EA5GFY-1 BLN1 Echolink EA5GFY-L UHF 145.235 Tono 94.8 CARTAGENA [Cobertura 25 Km] 1h36m
K7YVO-15 BLN0 K7YVO-10 Winlink RMS E-Mail Gateway 145.610 8m19s
LW1DSE BLN1 Radiostation partially powered from Sun energy (18 Cell's 10Wpk). 1h23m
PY5BK-10 BLN0 Ricardo Aurelio Seco - py5bk@qsl.net - (43) 9.9919-0404 54m52s
PY5BK-10 BLN1 Equipamentos e Projetos de APRS - http://www.py5bk.net/aprs 54m17s
SBAA BLN0 Conceicao do Araguaia Airport METAR SBAA 202000Z 14005KT CAVOK 37/10 Q1012 22h53m
SBAF BLN0 Campo Delio Jardim de Mattos Airport METAR SBAF 211800Z 21006KT 210V270 CAVOK 32/14 Q1016 53m21s
SBAN BLN0 Base Aerea Airport METAR SBAN 211800Z 13004KT 9999 FEW020 27/07 Q1020 52m51s
SBAR BLN0 Santa Maria Airport METAR SBAR 211800Z 13012KT 9999 BKN020 27/20 Q1016 52m40s
SBAU BLN0 Aracatuba Airport METAR SBAU 210900Z 20010KT CAVOK 18/10 Q1019 9h48m
SBAX BLN0 Araxa Airport METAR SBAX 211000Z 00000KT CAVOK 14/09 Q1023 8h53m
SBBE BLN0 Val de Cans Julio Cezar Ribeiro International Airport METAR SBBE 211800Z 13008KT 9999 BKN040 33/20 Q1010 52m30s
SBBG BLN0 Comandante Gustavo Kraemer Airport METAR SBBG 202000Z 27017KT 5000 RA OVC005 09/08 Q1014 22h51m
SBBH BLN0 Pampulha - Carlos Drummond de Andrade Airport METAR SBBH 211600Z 25004KT CAVOK 26/09 Q1021 2h52m
SBBI BLN0 Bacacheri Airport METAR SBBI 211700Z 32003KT 9999 SCT025 19/10 Q1021 1h52m
SBBQ BLN0 Major Brigadeiro Doorgal Borges Airport METAR SBBQ 211800Z 20004KT CAVOK 25/07 Q1023 52m18s
SBBR BLN0 Presidente Juscelino Kubistschek International Airport METAR SBBR 211800Z 10010KT 070V140 CAVOK 26/06 Q1019 52m7s
SBBU BLN0 Bauru Airport METAR SBBU 210900Z 20002KT CAVOK 19/12 Q1019 9h43m
SBBV BLN0 Atlas Brasil Cantanhede Airport METAR SBBV 211800Z 10006KT 9999 VCSH BKN030 FEW035TCU BKN080 26/24 Q1 012 51m51s
SBBW BLN0 Barra do Garcas Airport METAR SBBW 210500Z 00000KT CAVOK 16/14 Q1017 13h52m
SBCA BLN0 Cascavel Airport METAR SBCA 211800Z 15014KT CAVOK 15/06 Q1022 51m38s
SBCB BLN0 Cabo Frio Airport METAR SBCB 211800Z 05003KT CAVOK 30/19 Q1016 51m28s
SBCC BLN0 Cachimbo Airport METAR SBCC 211800Z 05010KT 010V090 9999 FEW030 31/08 Q1014 51m17s
SBCF BLN0 Tancredo Neves International Airport METAR SBCF 211800Z 16006KT 9999 FEW045 26/08 Q1020 51m7s
SBCG BLN0 Campo Grande Airport METAR SBCG 211800Z 15006KT CAVOK 21/09 Q1020 50m57s
SBCH BLN0 Chapeco Airport METAR SBCH 211700Z 00000KT 9999 SCT015 10/05 Q1024 1h50m
SBCI BLN0 Brig. Lysias Augusto Rodrigues Airport METAR SBCI 202000Z 11004KT 9999 FEW025 35/11 Q1011 22h49m
SBCJ BLN0 Carajas Airport METAR SBCJ 211800Z 11006KT CAVOK 30/10 Q1015 50m43s
SBCO BLN0 Canoas Airport METAR SBCO 210900Z 27020G30KT 9999 BKN035 09/03 Q1022 9h41m
SBCP BLN0 Bartolomeu Lisandro Airport METAR SBCP 211800Z 07014KT CAVOK 27/16 Q1016 50m28s
SBCR BLN0 Corumba International Airport METAR SBCR 211800Z 22009KT 9999 FEW030 19/09 Q1020 50m16s
SBCT BLN0 Afonso Pena Airport METAR SBCT 211800Z 30004KT 9999 SCT030 20/07 Q1021 50m5s
SBCX BLN0 Campo dos Bugres Airport METAR SBCX 211300Z 30012KT 9999 SCT012 05/02 Q1018 5h49m
SBCY BLN0 Marechal Rondon Airport METAR SBCY 211800Z 13007KT 9999 SCT020 20/12 Q1018 49m52s
SBCZ BLN0 Cruzeiro do Sul Airport METAR SBCZ 211800Z 20005KT 9999 BKN015 BKN100 27/23 Q1014 49m32s
SBDN BLN0 Presidente Prudente Airport METAR SBDN 211600Z 25009KT 200V330 7000 NSC 22/10 Q1020 2h49m
SBEG BLN0 Eduardo Gomes International Airport METAR SBEG 211800Z 11018KT 9999 SCT025 33/18 Q1010 49m18s
SBEK BLN0 Jacareacanga Airport METAR SBEK 202100Z 01002KT CAVOK 34/19 Q1010 21h47m
SBES BLN0 Sao Pedro da Aldeia Airport METAR SBES 211800Z 07006KT CAVOK 29/18 Q1016 48m58s
SBFI BLN0 Cataratas International Airport METAR SBFI 211800Z 18004KT CAVOK 15/06 Q1022 48m43s
SBFL BLN0 Hercilio Luz International Airport METAR SBFL 211800Z 14009KT 9999 BKN025 16/11 Q1020 48m31s
SBFN BLN0 Fernando de Noronha Airport METAR SBFN 211800Z 10012KT 9999 FEW020 27/22 Q1013 48m21s
SBFZ BLN0 Pinto Martins International Airport METAR SBFZ 211800Z 08013KT 9999 SCT030 SCT060 29/20 Q1011 48m7s
SBGL BLN0 Galeao - Antonio Carlos Jobim International Airport METAR SBGL 211700Z 21009KT CAVOK 33/14 Q1016 1h48m
SBGM BLN0 Guajara-Mirim Airport METAR SBGM 211800Z 17012KT 9999 BKN020 26/17 Q1015 47m43s
SBGO BLN0 Santa Genoveva Airport METAR SBGO 211800Z 16007KT CAVOK 30/09 Q1018 47m32s
SBGR BLN0 Guarulhos - Governador Andre Franco Montoro International Airport METAR SBGR 211820Z 13009KT 6000 BKN013 18/16 Q1021 47m17s
SBGW BLN0 Guaratingueta Airport METAR SBGW 211800Z 22004KT 9999 FEW025 29/11 Q1018 47m3s
SBHT BLN0 Altamira Airport METAR SBHT 211800Z 12005KT 9999 SCT030 32/22 Q1011 46m52s
SBIC BLN0 Itacoatiara Airport METAR SBIC 202100Z 16001KT 9999 FEW013 33/25 Q1009 21h45m
SBIH BLN0 Itaituba Airport METAR SBIH 211800Z /////KT 9999 FEW025 34/20 Q1009 46m41s
SBIL BLN0 Bahia - Jorge Amado Airport METAR SBIL 211400Z 15003KT 9999 FEW020 FEW025TCU BKN067 25/22 Q1020 4h46m
SBIP BLN0 Usiminas Airport METAR SBIP 211600Z 05010KT CAVOK 29/16 Q1020 2h46m
SBIZ BLN0 Prefeito Renato Moreira Airport METAR SBIZ 211700Z 12011KT 9999 SCT030 35/17 Q1011 1h47m
SBJP BLN0 Presidente Castro Pinto Airport METAR SBJP 211800Z 14016KT 9999 FEW030 BKN070 27/19 Q1014 46m28s
SBJR BLN0 Jacarepagua - Roberto Marinho Airport METAR SBJR 211800Z 18002KT CAVOK 30/18 Q1015 46m17s
SBJU BLN0 Orlando Bezerra de Menezes Airport METAR SBJU 210900Z 00000KT CAVOK 22/15 Q1019 9h37m
SBJV BLN0 Lauro Carneiro de Loyola Airport METAR SBJV 211700Z 11013KT 9999 FEW020 20/15 Q1020 1h46m
SBKG BLN0 Presidente Joao Suassuna Airport METAR SBKG 211500Z 14013KT 9999 BKN030 26/18 Q1017 3h46m
SBKP BLN0 Viracopos International Airport METAR SBKP 211800Z 13003KT CAVOK 28/08 Q1019 45m51s
SBLE BLN0 Chapada Diamantina Airport METAR SBLE 202100Z 04002KT 9999 SCT030 23/16 Q1019 21h43m
SBLO BLN0 Governador Jose Richa Airport METAR SBLO 211800Z 00000KT CAVOK 25/12 Q1019 45m38s
SBLS BLN0 Lagoa Santa Airport METAR SBLS 211800Z 15005KT 110V200 9999 FEW045 27/09 Q1020 45m28s
SBMA BLN0 Maraba Airport METAR SBMA 211800Z 14005KT 9999 FEW040 39/14 Q1010 44m52s
SBMD BLN0 Monte Dourado Airport METAR SBMD 201900Z 19008KT 9999 BKN024 29/22 Q1011 23h44m
SBME BLN0 Macae Airport METAR SBME 211500Z 03009KT 360V060 CAVOK 33/18 Q1016 3h45m
SBMG BLN0 Regional de Maringa - Silvio Nane Junior Airport METAR SBMG 211800Z 25003KT 220V310 CAVOK 22/09 Q1018 44m41s
SBMK BLN0 Mario Ribeiro Airport METAR SBMK 211500Z 07007KT 340V140 CAVOK 28/08 Q1021 3h45m
SBMN BLN0 Ponta Pelada Airport METAR SBMN 211800Z 08007KT 9999 SCT020 32/22 Q1010 44m29s
SBMO BLN0 Zumbi dos Palmares Airport METAR SBMO 211800Z 12012KT 9999 SCT025 27/18 Q1016 44m16s
SBMQ BLN0 Alberto Alcolumbre Airport METAR SBMQ 211800Z 11005KT 9999 SCT030 33/24 Q1010 44m3s
SBMS BLN0 Dix-Sept Rosado Airport METAR SBMS 211200Z 17005KT 9999 FEW025 30/18 Q1015 6h45m
SBMT BLN0 Campo de Marte Airport METAR SBMT 211600Z 26006KT CAVOK 27/10 Q1020 2h45m
SBMY BLN0 Manicore Airport METAR SBMY 202000Z 12005KT 9999 FEW022 33/21 Q1010 22h41m
SBNF BLN0 Ministro Victor Konder International Airport METAR SBNF 211800Z 10008KT 9999 FEW035 17/13 Q1020 43m51s
SBNM BLN0 Santo Angelo Airport METAR SBNM 201900Z 30010KT 2000 TSRA BKN003 BKN022 SCT030CB 11/09 Q1016 RERA 23h42m
SBNT BLN0 Augusto Severo Airport METAR SBNT 211800Z 14021KT 9999 SCT037 BKN070 27/21 Q1013 43m36s
SBOI BLN0 Oiapoque Airport METAR SBOI 211800Z 24004KT 9999 BKN020 SCT090 26/23 Q1011 43m18s
SBPA BLN0 Salgado Filho Airport METAR SBPA 211800Z 28016KT CAVOK 14/05 Q1022 43m4s
SBPB BLN0 Prefeito Doutor Joao Silva Filho Airport METAR SBPB 211700Z 06009KT 9999 FEW020 32/23 Q1011 1h43m
SBPC BLN0 Pocos de Caldas Airport METAR SBPC 211700Z 31005KT CAVOK 25/08 Q1023 1h43m
SBPF BLN0 Lauro Kurtz Airport METAR SBPF 211100Z 25008KT 9999 SCT030 BKN100 07/04 Q1024 7h43m
SBPJ BLN0 Brigadeiro Lysias Rodrigues Airport METAR SBPJ 210300Z 00000KT CAVOK 23/12 Q1015 15h44m
SBPK BLN0 Pelotas Airport METAR SBPK 211800Z 29010G23KT CAVOK 16/00 Q1019 42m45s
SBPL BLN0 Senador Nilo Coelho Airport METAR SBPL 211800Z 11009KT CAVOK 31/14 Q1014 42m33s
SBPP BLN0 Ponta Pora Airport METAR SBPP 211800Z 18004KT CAVOK 16/04 Q1019 42m22s
SBPR BLN0 Carlos Prates Airport METAR SBPR 211800Z 31004KT 9999 FEW025 28/10 Q1020 42m12s
SBPS BLN0 Porto Seguro Airport METAR SBPS 211800Z 10008KT 9999 FEW020 26/18 Q1018 42m2s
SBPV BLN0 Governador Jorge Teixeira de Oliveira Airport METAR SBPV 211800Z 12012KT 9999 FEW045 34/11 Q1011 41m47s
SBQV BLN0 Vitoria da Conquista Airport METAR SBQV 211800Z 15012KT 9999 -RA BKN025 22/16 Q1021 41m35s
SBRB BLN0 Placido de Castro Airport METAR SBRB 211800Z 18011KT 140V230 9999 BKN020 BKN100 20/13 Q1016 41m24s
SBRF BLN0 Guararapes - Gilberto Freyre International Airport METAR SBRF 211800Z 16017KT 9999 SCT025 BKN060 27/19 Q1015 41m14s
SBRJ BLN0 Santos Dumont Airport METAR SBRJ 211800Z 15008KT CAVOK 28/20 Q1015 41m2s
SBRP BLN0 Leite Lopes Airport METAR SBRP 211800Z 21003KT CAVOK 30/08 Q1017 40m52s
SBSC BLN0 Santa Cruz Airport METAR SBSC 211800Z 24003KT CAVOK 32/13 Q1015 40m39s
SBSJ BLN0 Professor Urbano Ernesto Stumpf Airport METAR SBSJ 211800Z 17003KT CAVOK 29/11 Q1019 40m28s
SBSL BLN0 Marechal Cunha Machado International Airport METAR SBSL 211800Z 09005KT 9999 BKN020 30/23 Q1011 40m18s
SBSM BLN0 Santa Maria Airport METAR SBSM 211800Z 25008KT 220V280 CAVOK 14/00 Q1023 40m8s
SBSN BLN0 Maestro Wilson Fonseca Airport METAR SBSN 211800Z 06010KT 9999 FEW020 30/24 Q1010 39m57s
SBSP BLN0 Congonhas Airport METAR SBSP 211822Z 17015KT 4700 BR SCT002 OVC005 16/14 Q1022 39m51s
SBSR BLN0 Sao Jose do Rio Preto Airport METAR SBSR 211800Z 02004KT CAVOK 30/08 Q1018 39m40s
SBST BLN0 Base Aerea de Santos Airport METAR SBST 211800Z 24005KT 3000 BR BKN013 OVC029 19/17 Q1020 39m30s
SBSV BLN0 Deputado Luiz Eduardo Magalhaes International Airport METAR SBSV 211800Z 12010KT 090V150 9999 SCT023 SCT060 27/19 Q1017 39m17s
SBTC BLN0 Hotel Transamerica Airport METAR SBTC 211400Z 22004KT 9999 FEW020 OVC070 25/23 Q1021 4h39m
SBTE BLN0 Senador Petronio Portela Airport METAR SBTE 211800Z 16006KT 9999 SCT040 34/15 Q1010 39m7s
SBTF BLN0 Tefe Airport METAR SBTF 211800Z 10007KT 9999 SCT020 32/22 Q1010 38m57s
SBTK BLN0 Tarauaca Airport METAR SBTK 202200Z 10003KT 9999 FEW030 28/23 Q1010 20h38m
SBTT BLN0 Tabatinga Airport METAR SBTT 211800Z 31004KT 9999 BKN019 26/24 Q1013 38m47s
SBTU BLN0 Tucurui Airport METAR SBTU 202100Z /////KT 9999 FEW030 ///// Q1013 21h35m
SBUA BLN0 Sao Gabriel da Cachoeira Airport METAR SBUA 211800Z 12004KT 9999 SCT020 FEW025TCU 29/24 Q1011 37m45s
SBUF BLN0 Paulo Afonso Airport METAR SBUF 211200Z 11008KT 9999 BKN019 24/18 Q1020 6h39m
SBUG BLN0 Rubem Berta Airport METAR SBUG 211800Z 36005KT CAVOK 15/02 Q1022 37m35s
SBUR BLN0 Mario de Almeida Franco Airport METAR SBUR 211500Z 17005KT CAVOK 27/07 Q1022 3h39m
SBVH BLN0 Vilhena Airport METAR SBVH 211800Z 12008KT 080V170 CAVOK 27/15 Q1018 37m23s
SBVT BLN0 Eurico de Aguiar Salles Airport METAR SBVT 211800Z 05013KT 9999 FEW030 27/21 Q1017 37m9s
SBYS BLN0 Campo Fontenelle Airport METAR SBYS 211700Z VRB05KT CAVOK 29/08 Q1019 1h37m
WA1GOV-10 BLN0 APRS to Twitter Gateway-Send an APRS message to WA1GOV-10 7h50m
WA1GOV-10 BLN1 Your call and message will appear as a tweet from @wa1gov 7h50m
WA1GOV-10 BLN2 Include your Twitter ID or IDs to receive notifications 7h50m
WA1GOV-10 BLN3 Get the next SATELLITE pass prediction for your QTH! 7h50m
WA1GOV-10 BLN4 Send an APRS message to WA1GOV-10 with a single 7h50m
WA1GOV-10 BLN5 uppercase entry of ISS, AO-85, AO-91, AO-92 or SO-50 7h50m
WXBOT BLN0 WxBot 1.25 US weather forecast via APRS message. 1h36m
WXBOT BLN1 Send a message to WXBOT for a weather forecast at your location. 1h36m
WXBOT BLN2 see https://sites.google.com/site/ki6wjp/wxbot 1h36m
WXSVR-AU BLN0 WxSvr 1.00 AU weather forecast via APRS message. 1h11m
WXSVR-AU BLN1 Send a message to WXSVR-AU for a weather forecast at your location. 1h11m
WXSVR-AU BLN2 see http://wxsvr.aprs.net.au for more info 1h11m
WXYO BLN0 WxBot 1.22 RO weather forecast via APRS message. 3h7m
WXYO BLN1 Send a message to WXYO for a weather forecast at your location. 3h7m
WXYO BLN2 see https://sites.google.com/site/ki6wjp/wxbot 3h7m
アナウンス(BLNA-BLNZ)
コールサイン ID メッセージ 経過時間
EA5GFY-1 BLNA RADAR 24 Hours Weather via APRS On-Line Web http://qrz.com/call/EA5GFY 1h37m
LW1DSE BLNA Estación parcialmente alimentada con energía solar (18 celdas 10Wpk). 1h24m
VK5RHO-1 BLNB Join the Email Group aprs.net.au/mailman/listinfo/ozaprs 26m7s
VK5RSC-1 BLNA Info/Help on APRS in Sth Aust at http://vk5.aprs.net.au 54m15s
他のグループ
コールサイン ID メッセージ 経過時間
F8ARO-AB BLN1FRA CQ Serveur APRS 2h
F8ARO-AB BLN2FRA [To] CQSRVR-FR [Text] CQ message 2h
F8ARO-AB BLN3FRA Message APRS Email 2h
F8ARO-AB BLN4FRA [To] MAIL-FR [Text] email@domaine message 1h59m
F8ARO-AB BLN5FRA Annuaire QRZ.com 1h59m
F8ARO-AB BLN6FRA [To] QUI-FR [Text] f indicatif 1h59m
F8ARO-AB BLN7FRA FRANCE DMR TG 208 1h59m
IK3SVW BLN0MAREA Venezia 21/7 max=70cm@19:00 min=15cm@02:55 max=35cm@09:35 8h40m
IK3SVW BLN1-21 SISMA *2 km NW Pieve Torina (MC)* ML=3.3 21-07 08:01UTC 8h16m
IK3SVW BLN1MAREA Venezia 21/7 min=25cm@11:10 max=70cm@19:00 min=15cm@02:55 11h47m
IK3SVW BLN2-21 SISMA *Golfo di Policastro (Salerno, Potenza)* ML=3.2 21-07 09:27UTC 8h14m
IZ6RDB BLNEMAREN Adriatico Settentrionale: In atto isolati temporali con colpi di ve 54m24s
LX0APN-2 BLNALUX XLX270 Reflector https://xlx270.epf.lu/ 35m25s
LX0APR-2 BLNDIGI Pse use WIDEx-x & LUXx-x only , TNX 22m55s
LX1CU-13 BLNALUX XLX Reflector goes DMR https://xlx270.epf.lu/ 5m10s
LX6K-10 BLNALUX Amateurfunk -> https://www.rlx.lu/ 6m14s
N4AZR-7 BLN003 AT GP 2018 1h6m
NEUTBA BLN1SYDWX Sydney Forcast 22nd 17C Sunny. 12h19m
NEUTBA BLN2SYDTD Tide 1.28M, Vis 40Km, Cloud 01 Okt, Air Qual 26, UV idx 21m52s
OK1COM-10 BLN4WX SIGWX:SW AND S LKAA OCNL,OTHER ISOL TSRA 20m45s
ON5AA BLN 73,DE,REGI 12h39m
PY5DCP-1 BLN REER ATENCAO ALGUMAS REGIONAIS ESTARAO EM SIMULADO NO PROX 21/07! 12m14s
ROAN-3 BLN001 roan digi up i think 3h13m
ROAN-3 BLN002 qsl 1-10 1h8m
YM2KDU BLN APRS Sabitte YM2KDU,WIDE2-2 Mobilde WIDE1-1,WIDE2-2 1h11m
YM2KY BLN1LOCAL info@sakrad.org 23m41s
このサイトについて
このページは Automatic Position Reporting System Internet network (APRS-IS)から得られた情報をリアルタイムで提供するものです. APRS は amateur (ham) radio 局によって使われ、位置情報、天気情報、テレメトリー、そしてメッセージなどの情報を無線を通して共有するものです。たとえば、車に GPS receiver, a VHF transmitter HF transceiver そしてトラッカーと呼ばれる小さなマイコンを搭載し、速度や移動方向をパケットにして送信します。そのパケットは近くのiGateによって受信され、インターネットへ送り込まれます。 インターネットに接続されたシステムは送信機がなくても情報をAPRS-ISへ流すことができます。
FAQ · ブログ · ディスカッショングループ · リンク先:aprs.fi · AISサイト · サービス稼動状況 · データベースの統計情報 · aprs.fiの宣伝 · 技術詳細 · API · 変更履歴 · 計画中の変更 · 謝辞 · サービス規約 · iPhone/iPad APRS